Tiempo atmosférico en la estación meteorológica de Anaga, Santa Cruz de Tenerife (19 m.)



Fecha
DESCASC
Temp. máxima en grados centígrados (hora)
DESCASC
Temp. mínima en grados centígrados (hora)
DESCASC
Temp. media en grados centígrados
DESCASC
Racha de viento máxima en m/sg (hora)
DESCASC
Velocidad máxima media en intervalos de 10 minutos(hora)
DESCASC
Precipitaciones diarias en mm
DESCASC
Precipitaciones de 00:00 a 06:00 en mm
DESCASC
Precipitaciones de 06:00 a 12:00 en mm
DESCASC
Precipitaciones de 12:00 a 18:00 en mm
DESCASC
Precipitaciones de 18:00 a 24:00 en mm
DESCASC
28-02-2021 20.4 (13:50) 14.7 (04:20) 17.5 8.89 (15:40) 3.89 (15:40) 2 0.4 1.6 0 0
27-02-2021 19.1 (14:30) 13.9 (06:30) 16.5 11.67 (13:00) 5.56 (13:00) 1.8 0.6 0.8 0.4 0
26-02-2021 19.5 (13:40) 16.2 (20:20) 17.9 10.56 (15:40) 3.89 (03:20) 0.2 0 0 0 0.2
25-02-2021 20.1 (16:00) 16.4 (00:00) 18.3 9.44 (22:20) 3.33 (16:20) 5.6 0 4.6 1 0
24-02-2021 22.5 (15:50) 15.9 (00:00) 19.2 9.17 (22:30) 3.61 (12:40) 0 0 0 0 0
23-02-2021 22.3 (13:30) 15.1 (00:00) 18.7 7.78 (11:00) 3.06 (17:40) 0 0 0 0 0
22-02-2021 21.5 (15:10) 13.6 (00:00) 17.6 5.28 (15:00) 2.78 (13:00) 0 0 0 0 0
21-02-2021 22.4 (14:20) 15.8 (00:00) 19.1 11.67 (00:50) 4.72 (11:00) 2.2 2.2 0 0 0
20-02-2021 22.4 (14:10) 13.6 (00:00) 18 20.56 (20:40) 7.22 (20:40) 3.8 0 0 0 3.8
19-02-2021 21.9 (14:30) 12.2 (00:00) 17 4.17 (14:20) 2.5 (14:40) 0 0 0 0 0
18-02-2021 22.8 (15:20) 13.1 (00:00) 17.9 9.17 (14:30) 3.89 (14:40) 0 0 0 0 0
17-02-2021 21.9 (13:30) 14.4 (00:00) 18.1 7.78 (14:30) 3.61 (14:30) 0 0 0 0 0
16-02-2021 22.8 (12:10) 16.1 (00:00) 19.4 9.72 (17:50) 4.17 (13:20) 0 0 0 0 0
15-02-2021 23.7 (13:10) 13 (00:00) 18.4 4.17 (13:30) 2.22 (15:50) 0 0 0 0 0
14-02-2021 20.9 (16:30) 14.1 (00:00) 17.5 7.22 (12:50) 3.33 (12:50) 0 0 0 0 0
13-02-2021 22.5 (14:30) 17 (00:00) 19.8 7.78 (16:50) 3.89 (17:40) 0 0 0 0 0
12-02-2021 22.1 (14:40) 16.6 (00:00) 19.4 7.5 (13:50) 3.61 (13:30) 0 0 0 0 0
11-02-2021 22.3 (14:40) 13.7 (00:00) 18 7.5 (14:40) 3.61 (14:00) 0 0 0 0 0
10-02-2021 21.9 (14:40) 13.5 (00:00) 17.7 4.17 (12:40) 1.94 (13:20) 0 0 0 0 0
09-02-2021 21.6 (13:30) 13.2 (00:00) 17.4 6.39 (12:30) 3.06 (14:00) 0 0 0 0 0
08-02-2021 21.4 (12:50) 13.8 (00:00) 17.6 6.94 (14:50) 3.06 (14:50) 0 0 0 0 0
07-02-2021 20 (14:30) 14.9 (00:00) 17.4 6.67 (14:00) 3.89 (14:10) 0 0 0 0 0
06-02-2021 19.7 (14:30) 14.1 (00:00) 16.9 12.22 (09:30) 4.72 (04:20) 3 1 1.8 0.2 0
05-02-2021 16.2 (14:40) 11.5 (00:00) 13.9 13.06 (18:00) 4.72 (22:30) 57.8 8.6 17.6 26.4 5.2
04-02-2021 19.1 (16:00) 12.6 (00:00) 15.9 13.89 (15:30) 5.28 (12:10) 7 0 0 2.4 4.6
03-02-2021 21.8 (13:50) 13 (00:00) 17.4 6.11 (15:10) 3.33 (12:20) 0 0 0 0 0
02-02-2021 21.1 (14:10) 14.5 (07:10) 17.8 6.39 (11:50) 2.78 (12:30) 0 0 0 0 0
01-02-2021 23.5 (16:20) 15.4 (00:00) 19.4 7.22 (12:30) 3.61 (12:30) 0 0 0 0 0
31-01-2021 23.3 (14:50) 17.6 (00:00) 20.4 9.72 (21:50) 4.72 (17:00) 0 0 0 0 0
30-01-2021 23.7 (13:50) 14.3 (00:00) 19 11.67 (00:40) 6.67 (00:40) 0 0 0 0 0

Gráficas

Temp. máximas Temp. mínimas Temp. medias Precipitaciones Rachas de viento máximas Velocidades máximas media en intervalos de 10 minutos

Datos horarios

Fecha y hora oficial Temperatura (ºC) Velocidad del viento (km/h) Dirección del viento Racha (km/h) Dirección de racha Precipitación (mm) Presión (hPa) Tendencia (hPa) Humedad (%)
2021-02-28 23:00:00 17.4 5 Norte 23 Norte 0 -- -- 68
2021-02-28 22:00:00 17.6 8 Norte 23 Nordeste 0 -- -- 67
2021-02-28 21:00:00 17.7 9 Norte 27 Norte 0 -- -- 65
2021-02-28 20:00:00 17.8 10 Norte 30 Noroeste 0 -- -- 65
2021-02-28 19:00:00 17.7 12 Norte 29 Norte 0 -- -- 66
2021-02-28 18:00:00 18.4 12 Norte 32 Nordeste 0 -- -- 63
2021-02-28 17:00:00 19.1 8 Norte 31 Norte 0 -- -- 59
2021-02-28 16:00:00 20.2 14 Norte 32 Norte 0 -- -- 55
2021-02-28 15:00:00 20.2 14 Norte 31 Norte 0 -- -- 58
2021-02-28 14:00:00 20.3 10 Norte 30 Noroeste 0 -- -- 61
2021-02-28 13:00:00 19.9 10 Norte 30 Norte 0 -- -- 63
2021-02-28 12:00:00 18.7 12 Norte 26 Nordeste 1 -- -- 71
2021-02-28 11:00:00 18.8 6 Norte 17 Nordeste 0.2 -- -- 67
2021-02-28 10:00:00 17.3 7 Norte 27 Noroeste 0.4 -- -- 73
2021-02-28 09:00:00 16.2 3 Norte 14 Noroeste 0 -- -- 78
2021-02-28 08:00:00 15.1 0 Calma 8 Nordeste 0 -- -- 82
2021-02-28 07:00:00 14.8 2 Norte 7 Sudoeste 0 -- -- 83
2021-02-28 06:00:00 15 2 Sudoeste 17 Noroeste 0 -- -- 81
2021-02-28 05:00:00 15.2 5 Noroeste 13 Nordeste 0.2 -- -- 78
2021-02-28 04:00:00 15.2 0 Calma 11 Norte 0.2 -- -- 75
2021-02-28 03:00:00 16 3 Noroeste 16 Oeste 0 -- -- 66
2021-02-28 02:00:00 16 5 Sudoeste 22 Norte 0 -- -- 66
2021-02-28 01:00:00 15.7 6 Norte 20 Nordeste 0 -- -- 70
2021-02-28 00:00:00 15.9 4 Noroeste 21 Norte 0 -- -- 68
2021-02-27 23:00:00 16.6 9 Norte 21 Norte 0 -- -- 59
2021-02-27 22:00:00 16.7 12 Noroeste 28 Norte 0 -- -- 56
2021-02-27 21:00:00 16.3 8 Norte 36 Norte 0 -- -- 59
2021-02-27 20:00:00 16.4 12 Norte 28 Noroeste 0 -- -- 56
2021-02-27 19:00:00 16.9 6 Norte 24 Norte 0 -- -- 54
2021-02-27 18:00:00 17.2 8 Norte 31 Norte 0 -- -- 56
2021-02-27 17:00:00 17.9 12 Norte 32 Norte 0 -- -- 55
2021-02-27 16:00:00 19 5 Norte 29 Norte 0 -- -- 49
2021-02-27 15:00:00 18.8 9 Norte 30 Norte 0 -- -- 55
2021-02-27 14:00:00 17.6 14 Norte 36 Norte 0.4 -- -- 64
2021-02-27 13:00:00 17.1 20 Norte 42 Norte 0 -- -- 70
2021-02-27 12:00:00 18.2 13 Norte 31 Noroeste 0 -- -- 56
2021-02-27 11:00:00 17.7 14 Norte 32 Nordeste 0 -- -- 59
2021-02-27 10:00:00 17.1 10 Norte 26 Norte 0 -- -- 65
2021-02-27 09:00:00 15.7 15 Norte 28 Norte 0.2 -- -- 66
2021-02-27 08:00:00 15.3 5 Norte 27 Noroeste 0 -- -- 64
2021-02-27 07:00:00 14.3 3 Oeste 19 Norte 0.6 -- -- 79
2021-02-27 06:00:00 14.4 9 Norte 26 Norte 0.6 -- -- 76
2021-02-27 05:00:00 15.8 6 Norte 25 Noroeste 0 -- -- 57
2021-02-27 04:00:00 15.7 8 Norte 29 Norte 0 -- -- 57
2021-02-27 03:00:00 15.6 7 Norte 23 Nordeste 0 -- -- 68
2021-02-27 02:00:00 16.4 8 Nordeste 31 Norte 0 -- -- 54
2021-02-27 01:00:00 16.5 5 Norte 22 Noroeste 0 -- -- 60
2021-02-27 00:00:00 16.8 8 Norte 23 Norte 0 -- -- 60
2021-02-26 23:00:00 16.5 10 Norte 33 Nordeste 0 -- -- 66
2021-02-26 22:00:00 16.8 9 Norte 24 Norte 0 -- -- 66
2021-02-26 21:00:00 16.3 6 Nordeste 24 Norte 0.2 -- -- 69
2021-02-26 20:00:00 16.5 8 Norte 33 Norte 0 -- -- 66
2021-02-26 19:00:00 17.3 10 Norte 34 Noroeste 0 -- -- 60
2021-02-26 18:00:00 17.7 8 Norte 36 Norte 0 -- -- 60
2021-02-26 17:00:00 17.9 11 Norte 30 Norte 0 -- -- 57
2021-02-26 16:00:00 18.3 12 Norte 38 Norte 0 -- -- 58
2021-02-26 15:00:00 18.8 11 Norte 32 Norte 0 -- -- 55
2021-02-26 14:00:00 19.3 13 Norte 32 Nordeste 0 -- -- 51
2021-02-26 13:00:00 18.9 10 Norte 27 Nordeste 0 -- -- 50
2021-02-26 12:00:00 18.5 9 Norte 30 Nordeste 0 -- -- 55
2021-02-26 11:00:00 18.7 11 Norte 30 Norte 0 -- -- 55
2021-02-26 10:00:00 17.9 12 Norte 33 Nordeste 0 -- -- 53
2021-02-26 09:00:00 17.7 12 Nordeste 30 Nordeste 0 -- -- 56
2021-02-26 08:00:00 16.7 13 Norte 28 Este 0 -- -- 62
2021-02-26 07:00:00 16.4 9 Norte 37 Sur 0 -- -- 59
2021-02-26 06:00:00 16.4 9 Norte 30 Nordeste 0 -- -- 56
2021-02-26 05:00:00 16.6 10 Norte 30 Norte 0 -- -- 59
2021-02-26 04:00:00 16.4 7 Norte 32 Norte 0 -- -- 61
2021-02-26 03:00:00 16.7 12 Norte 30 Nordeste 0 -- -- 64
2021-02-26 02:00:00 16.7 10 Norte 37 Norte 0 -- -- 57
2021-02-26 01:00:00 16.7 10 Norte 35 Nordeste 0 -- -- 61
2021-02-26 00:00:00 16.5 8 Norte 30 Nordeste 0 -- -- 59
2021-02-25 23:00:00 16.5 9 Norte 34 Nordeste 0 -- -- 60
2021-02-25 22:00:00 16.6 8 Norte 27 Norte 0 -- -- 61
2021-02-25 21:00:00 16.9 5 Norte 22 Norte 0 -- -- 59
2021-02-25 20:00:00 17.4 7 Norte 20 Norte 0 -- -- 62
2021-02-25 19:00:00 17.6 8 Norte 24 Norte 0 -- -- 64
2021-02-25 18:00:00 18.2 8 Norte 24 Noroeste 0 -- -- 66
2021-02-25 17:00:00 19 11 Norte 27 Norte 0 -- -- 63
2021-02-25 16:00:00 20.1 7 Norte 23 Noroeste 0 -- -- 65
2021-02-25 15:00:00 18.9 7 Noroeste 19 Noroeste 0.2 -- -- 69
2021-02-25 14:00:00 17.8 6 Norte 18 Norte 0.2 -- -- 78
2021-02-25 13:00:00 18.1 8 Norte 25 Norte 0.6 -- -- 78
2021-02-25 12:00:00 17.9 6 Norte 24 Norte 2.4 -- -- 84
2021-02-25 11:00:00 18.9 4 Norte 18 Norte 1.2 -- -- 78
2021-02-25 10:00:00 18.8 5 Norte 18 Sudeste 0.2 -- -- 78
2021-02-25 09:00:00 18.5 3 Norte 15 Sur 0.4 -- -- 78
2021-02-25 08:00:00 17.6 6 Norte 15 Norte 0.2 -- -- 80
2021-02-25 07:00:00 17.9 3 Norte 20 Norte 0.2 -- -- 78
2021-02-25 06:00:00 18.5 3 Nordeste 15 Norte 0 -- -- 73
2021-02-25 05:00:00 18.6 5 Nordeste 20 Sudoeste 0 -- -- 69
2021-02-25 04:00:00 18.5 5 Norte 21 Noroeste 0 -- -- 68
2021-02-25 03:00:00 18.2 5 Norte 21 Noroeste 0 -- -- 67
2021-02-25 02:00:00 18.5 9 Norte 19 Nordeste 0 -- -- 66
2021-02-25 01:00:00 18.6 9 Norte 25 Norte 0 -- -- 67
2021-02-25 00:00:00 18.6 10 Norte 29 Norte 0 -- -- 67
2021-02-24 23:00:00 18.7 10 Norte 33 Norte 0 -- -- 68
2021-02-24 22:00:00 18.8 10 Norte 27 Nordeste 0 -- -- 68
2021-02-24 21:00:00 19.1 9 Norte 28 Norte 0 -- -- 67
2021-02-24 20:00:00 19 8 Norte 26 Norte 0 -- -- 68
2021-02-24 19:00:00 19.4 6 Norte 20 Norte 0 -- -- 69
2021-02-24 18:00:00 20 8 Norte 26 Norte 0 -- -- 68
2021-02-24 17:00:00 20.6 10 Norte 31 Norte 0 -- -- 63
2021-02-24 16:00:00 22.1 11 Norte 26 Norte 0 -- -- 57
2021-02-24 15:00:00 22.3 12 Norte 28 Noroeste 0 -- -- 56
2021-02-24 14:00:00 22.3 8 Norte 27 Norte 0 -- -- 56
2021-02-24 13:00:00 21.9 12 Norte 29 Norte 0 -- -- 57
2021-02-24 12:00:00 21.6 9 Norte 31 Noroeste 0 -- -- 55
2021-02-24 11:00:00 20 10 Norte 22 Norte 0 -- -- 58
2021-02-24 10:00:00 19.2 5 Norte 19 Norte 0 -- -- 56
2021-02-24 09:00:00 18.8 6 Norte 21 Nordeste 0 -- -- 63
2021-02-24 08:00:00 18.1 5 Norte 20 Nordeste 0 -- -- 63
2021-02-24 07:00:00 18.2 7 Norte 22 Noroeste 0 -- -- 63
2021-02-24 06:00:00 18.5 7 Norte 16 Nordeste 0 -- -- 61
2021-02-24 05:00:00 18.5 3 Norte 19 Norte 0 -- -- 64
2021-02-24 04:00:00 18.5 4 Nordeste 18 Norte 0 -- -- 68
2021-02-24 03:00:00 18 2 Noroeste 10 Este 0 -- -- 73
2021-02-24 02:00:00 15.9 2 Norte 6 Norte 0 -- -- 80
2021-02-24 01:00:00 15.9 2 Norte 5 Oeste 0 -- -- 78
2021-02-24 00:00:00 16.1 0 Calma 8 Norte 0 -- -- 75
2021-02-23 23:00:00 16.7 3 Norte 11 Noroeste 0 -- -- 72
2021-02-23 22:00:00 17.6 5 Norte 10 Norte 0 -- -- 67
2021-02-23 21:00:00 17 3 Norte 8 Norte 0 -- -- 67
2021-02-23 20:00:00 17.8 3 Norte 13 Nordeste 0 -- -- 63
2021-02-23 19:00:00 19.3 5 Norte 22 Sudeste 0 -- -- 57
2021-02-23 18:00:00 19.9 8 Sur 26 Sur 0 -- -- 56
2021-02-23 17:00:00 20.9 10 Sudeste 22 Sudeste 0 -- -- 55
2021-02-23 16:00:00 21.5 9 Sur 27 Sudeste 0 -- -- 56
2021-02-23 15:00:00 21.7 10 Sudeste 26 Sudeste 0 -- -- 57
2021-02-23 14:00:00 22 11 Sudeste 24 Sudeste 0 -- -- 54
2021-02-23 13:00:00 21.9 9 Sudeste 24 Sur 0 -- -- 57
2021-02-23 12:00:00 21.1 8 Sudeste 19 Sudeste 0 -- -- 57
2021-02-23 11:00:00 21.7 9 Sur 28 Sudeste 0 -- -- 58
2021-02-23 10:00:00 20.7 8 Sur 19 Sudeste 0 -- -- 55
2021-02-23 09:00:00 17.6 5 Norte 9 Norte 0 -- -- 73
2021-02-23 08:00:00 15.2 4 Norte 9 Norte 0 -- -- 83
2021-02-23 07:00:00 15.5 4 Norte 8 Norte 0 -- -- 84
2021-02-23 06:00:00 15.3 4 Norte 9 Norte 0 -- -- 80
2021-02-23 05:00:00 15.5 3 Norte 9 Norte 0 -- -- 80
2021-02-23 04:00:00 16.5 4 Norte 15 Noroeste 0 -- -- 80
2021-02-23 03:00:00 16 4 Norte 10 Noroeste 0 -- -- 85
2021-02-23 02:00:00 15.6 0 Calma 8 Norte 0 -- -- 86
2021-02-23 01:00:00 16 3 Norte 7 Norte 0 -- -- 84
2021-02-23 00:00:00 17.7 3 Norte 9 Nordeste 0 -- -- 79
2021-02-22 23:00:00 17.2 0 Calma 8 Norte 0 -- -- 82
2021-02-22 22:00:00 16.2 3 Norte 7 Norte 0 -- -- 85
2021-02-22 21:00:00 16.4 0 Calma 6 Norte 0 -- -- 83
2021-02-22 20:00:00 17.2 5 Norte 9 Norte 0 -- -- 81
2021-02-22 19:00:00 18.5 2 Sudoeste 6 Sur 0 -- -- 75
2021-02-22 18:00:00 19.2 3 Sur 9 Sur 0 -- -- 72
2021-02-22 17:00:00 20.1 5 Sur 15 Sur 0 -- -- 68
2021-02-22 16:00:00 21.3 6 Sur 15 Sur 0 -- -- 65
2021-02-22 15:00:00 21.4 9 Sur 19 Sudeste 0 -- -- 64
2021-02-22 14:00:00 21 8 Sudeste 17 Sudeste 0 -- -- 63
2021-02-22 13:00:00 20.7 10 Sudeste 17 Sudeste 0 -- -- 63
2021-02-22 12:00:00 20 8 Sur 18 Sur 0 -- -- 64
2021-02-22 11:00:00 20.7 9 Sur 17 Sudeste 0 -- -- 63
2021-02-22 10:00:00 19.9 6 Sudeste 15 Sudeste 0 -- -- 65
2021-02-22 09:00:00 16.4 6 Norte 12 Norte 0 -- -- 70
2021-02-22 08:00:00 14 5 Norte 11 Norte 0 -- -- 77
2021-02-22 07:00:00 14 6 Norte 11 Norte 0 -- -- 73
2021-02-22 06:00:00 13.8 4 Norte 8 Norte 0 -- -- 74
2021-02-22 05:00:00 13.6 4 Norte 8 Norte 0 -- -- 76
2021-02-22 04:00:00 14 4 Norte 8 Nordeste 0 -- -- 78
2021-02-22 03:00:00 14.8 4 Norte 10 Norte 0 -- -- 76
2021-02-22 02:00:00 15.6 3 Norte 10 Noroeste 0 -- -- 73
2021-02-22 01:00:00 16.2 3 Norte 13 Norte 0 -- -- 71
2021-02-22 00:00:00 15.8 2 Norte 5 Noroeste 0 -- -- 74
2021-02-21 23:00:00 16.5 3 Noroeste 11 Norte 0 -- -- 69
2021-02-21 22:00:00 16.8 2 Noroeste 15 Norte 0 -- -- 69
2021-02-21 21:00:00 17.7 8 Norte 20 Nordeste 0 -- -- 66
2021-02-21 20:00:00 17.8 8 Norte 23 Norte 0 -- -- 65
2021-02-21 19:00:00 18.2 5 Norte 15 Norte 0 -- -- 61
2021-02-21 18:00:00 19.1 7 Norte 27 Norte 0 -- -- 58
2021-02-21 17:00:00 20.5 9 Norte 25 Norte 0 -- -- 53
2021-02-21 16:00:00 21.6 10 Norte 24 Norte 0 -- -- 50
2021-02-21 15:00:00 22.3 8 Este 23 Nordeste 0 -- -- 48
2021-02-21 14:00:00 22.2 11 Norte 29 Norte 0 -- -- 44
2021-02-21 13:00:00 21.4 12 Norte 36 Nordeste 0 -- -- 48
2021-02-21 12:00:00 20.6 13 Norte 29 Norte 0 -- -- 50
2021-02-21 11:00:00 20.2 17 Norte 34 Norte 0 -- -- 53
2021-02-21 10:00:00 19.7 11 Norte 22 Norte 0 -- -- 58
2021-02-21 09:00:00 18.6 6 Norte 14 Norte 0 -- -- 60
2021-02-21 08:00:00 17.3 3 Noroeste 15 Oeste 0 -- -- 61
2021-02-21 07:00:00 17.2 3 Oeste 22 Nordeste 0 -- -- 63
2021-02-21 06:00:00 17.3 2 Noroeste 22 Nordeste 0 -- -- 67
2021-02-21 05:00:00 16.9 5 Norte 18 Nordeste 0 -- -- 68
2021-02-21 04:00:00 17.1 5 Norte 20 Norte 0.2 -- -- 70
2021-02-21 03:00:00 17.2 4 Noroeste 21 Noroeste 0.2 -- -- 72
2021-02-21 02:00:00 17.1 4 Norte 25 Noroeste 0.2 -- -- 76
2021-02-21 01:00:00 17.4 4 Norte 42 Nordeste 1.6 -- -- 80
2021-02-21 00:00:00 17.8 10 Norte 39 Nordeste 1.4 -- -- 77
2021-02-20 23:00:00 18.6 11 Norte 40 Norte 0.6 -- -- 78
2021-02-20 22:00:00 18.5 12 Norte 52 Norte 1 -- -- 81
2021-02-20 21:00:00 19.5 18 Norte 74 Nordeste 0.8 -- -- 78
2021-02-20 20:00:00 22.3 9 Nordeste 43 Sudeste 0 -- -- 60
2021-02-20 19:00:00 21.7 10 Sur 39 Sur 0 -- -- 66
2021-02-20 18:00:00 21.9 3 Sur 22 Sur 0 -- -- 65
2021-02-20 17:00:00 21.9 6 Este 21 Norte 0 -- -- 63
2021-02-20 16:00:00 21.4 3 Oeste 13 Sudeste 0 -- -- 65
2021-02-20 15:00:00 21.2 5 Sudeste 21 Sudeste 0 -- -- 69
2021-02-20 14:00:00 22.3 5 Nordeste 18 Sur 0 -- -- 51
2021-02-20 13:00:00 21.6 9 Sur 17 Sur 0 -- -- 63
2021-02-20 12:00:00 20.7 3 Sudoeste 13 Sur 0 -- -- 62
2021-02-20 11:00:00 19.6 5 Sur 11 Sur 0 -- -- 68
2021-02-20 10:00:00 18.9 4 Nordeste 10 Nordeste 0 -- -- 68
2021-02-20 09:00:00 16.3 3 Noroeste 10 Norte 0 -- -- 73
2021-02-20 08:00:00 14.3 5 Norte 12 Norte 0 -- -- 80
2021-02-20 07:00:00 13.7 4 Norte 10 Norte 0 -- -- 74
2021-02-20 06:00:00 14.1 6 Norte 10 Norte 0 -- -- 68
2021-02-20 05:00:00 14.6 5 Norte 13 Norte 0 -- -- 71
2021-02-20 04:00:00 13.9 4 Norte 9 Nordeste 0 -- -- 79
2021-02-20 03:00:00 14.5 4 Norte 9 Norte 0 -- -- 76
2021-02-20 02:00:00 14.8 5 Norte 9 Norte 0 -- -- 74
2021-02-20 01:00:00 14.7 6 Norte 9 Noroeste 0 -- -- 75
2021-02-20 00:00:00 15 4 Norte 8 Norte 0 -- -- 74
2021-02-19 23:00:00 15.3 5 Norte 9 Norte 0 -- -- 75
2021-02-19 22:00:00 15.7 4 Norte 9 Norte 0 -- -- 73
2021-02-19 21:00:00 16.5 4 Norte 9 Norte 0 -- -- 70
2021-02-19 20:00:00 17.1 4 Norte 8 Norte 0 -- -- 69
2021-02-19 19:00:00 19.1 0 Calma 8 Sur 0 -- -- 65
2021-02-19 18:00:00 19.7 3 Sur 10 Sur 0 -- -- 61
2021-02-19 17:00:00 20.8 5 Sur 13 Sur 0 -- -- 61
2021-02-19 16:00:00 21.5 7 Sur 14 Sudeste 0 -- -- 58
2021-02-19 15:00:00 21.6 6 Sudeste 15 Sudeste 0 -- -- 57
2021-02-19 14:00:00 21.6 7 Sur 14 Sudeste 0 -- -- 59
2021-02-19 13:00:00 21.6 6 Sur 12 Sudeste 0 -- -- 54
2021-02-19 12:00:00 21 5 Sur 13 Sudeste 0 -- -- 53
2021-02-19 11:00:00 20.9 5 Sudeste 12 Sudeste 0 -- -- 46
2021-02-19 10:00:00 19.2 2 Sudeste 9 Norte 0 -- -- 46
2021-02-19 09:00:00 14.5 4 Norte 10 Norte 0 -- -- 51
2021-02-19 08:00:00 12.5 4 Norte 9 Norte 0 -- -- 55
2021-02-19 07:00:00 12.2 6 Norte 10 Norte 0 -- -- 54
2021-02-19 06:00:00 12.4 6 Norte 9 Norte 0 -- -- 58
2021-02-19 05:00:00 12.8 3 Norte 10 Norte 0 -- -- 53
2021-02-19 04:00:00 12.7 6 Norte 10 Norte 0 -- -- 47
2021-02-19 03:00:00 13 5 Norte 10 Norte 0 -- -- 48
2021-02-19 02:00:00 13 6 Norte 9 Noroeste 0 -- -- 53
2021-02-19 01:00:00 13.4 6 Norte 10 Norte 0 -- -- 52
2021-02-19 00:00:00 14.2 5 Norte 10 Norte 0 -- -- 52
2021-02-18 23:00:00 14.3 5 Norte 8 Norte 0 -- -- 60
2021-02-18 22:00:00 15.1 5 Norte 8 Norte 0 -- -- 59
2021-02-18 21:00:00 16 4 Norte 8 Norte 0 -- -- 58
2021-02-18 20:00:00 17.5 0 Calma 12 Nordeste 0 -- -- 63
2021-02-18 19:00:00 18.6 4 Norte 16 Noroeste 0 -- -- 63
2021-02-18 18:00:00 19.5 7 Norte 18 Norte 0 -- -- 61
2021-02-18 17:00:00 20.8 9 Norte 24 Nordeste 0 -- -- 59
2021-02-18 16:00:00 22.4 7 Norte 19 Nordeste 0 -- -- 54
2021-02-18 15:00:00 22.7 7 Nordeste 33 Sudeste 0 -- -- 49
2021-02-18 14:00:00 21.5 12 Sudeste 28 Sudeste 0 -- -- 48
2021-02-18 13:00:00 21.9 8 Sudeste 20 Sudeste 0 -- -- 46
2021-02-18 12:00:00 21.3 9 Sudeste 19 Sudeste 0 -- -- 53
2021-02-18 11:00:00 21.1 8 Sudeste 17 Sudeste 0 -- -- 50
2021-02-18 10:00:00 19.3 2 Norte 8 Norte 0 -- -- 55
2021-02-18 09:00:00 15.9 3 Norte 8 Nordeste 0 -- -- 66
2021-02-18 08:00:00 14.1 3 Norte 8 Norte 0 -- -- 69
2021-02-18 07:00:00 13.5 3 Norte 8 Noroeste 0 -- -- 69
2021-02-18 06:00:00 13.6 2 Norte 6 Norte 0 -- -- 69
2021-02-18 05:00:00 13.8 2 Noroeste 10 Nordeste 0 -- -- 68
2021-02-18 04:00:00 13.2 5 Norte 13 Norte 0 -- -- 62
2021-02-18 03:00:00 13.3 7 Norte 11 Norte 0 -- -- 46
2021-02-18 02:00:00 14.5 5 Norte 12 Norte 0 -- -- 57
2021-02-18 01:00:00 14.5 4 Norte 9 Nordeste 0 -- -- 63
2021-02-18 00:00:00 15 4 Norte 10 Norte 0 -- -- 65
2021-02-17 23:00:00 15.1 4 Norte 10 Norte 0 -- -- 66
2021-02-17 22:00:00 15.3 4 Norte 8 Norte 0 -- -- 69
2021-02-17 21:00:00 15.8 3 Norte 7 Norte 0 -- -- 68
2021-02-17 20:00:00 18 3 Sudeste 17 Sur 0 -- -- 61
2021-02-17 19:00:00 18.5 7 Sudeste 19 Sudeste 0 -- -- 57
2021-02-17 18:00:00 19.4 6 Sudeste 13 Este 0 -- -- 56
2021-02-17 17:00:00 20.6 5 Sur 22 Sudeste 0 -- -- 52
2021-02-17 16:00:00 21.3 9 Sudeste 27 Sudeste 0 -- -- 50
2021-02-17 15:00:00 21.7 10 Sudeste 28 Sudeste 0 -- -- 46
2021-02-17 14:00:00 21.8 11 Sudeste 26 Sur 0 -- -- 44
2021-02-17 13:00:00 21.4 11 Sur 26 Sudeste 0 -- -- 45
2021-02-17 12:00:00 20.5 11 Sudeste 21 Sudeste 0 -- -- 46
2021-02-17 11:00:00 20.6 8 Sur 18 Sudeste 0 -- -- 46
2021-02-17 10:00:00 20.2 6 Sur 18 Sudeste 0 -- -- 56
2021-02-17 09:00:00 17.2 5 Sur 10 Sudeste 0 -- -- 76
2021-02-17 08:00:00 14.4 3 Norte 6 Norte 0 -- -- 83
2021-02-17 07:00:00 14.8 3 Norte 6 Norte 0 -- -- 82
2021-02-17 06:00:00 15.7 0 Calma 12 Sudeste 0 -- -- 77
2021-02-17 05:00:00 17.8 4 Sudoeste 13 Sur 0 -- -- 72
2021-02-17 04:00:00 16.8 6 Sur 12 Sur 0 -- -- 75
2021-02-17 03:00:00 15.2 0 Calma 6 Nordeste 0 -- -- 71
2021-02-17 02:00:00 15 3 Norte 8 Norte 0 -- -- 53
2021-02-17 01:00:00 15.3 6 Norte 10 Norte 0 -- -- 40
2021-02-17 00:00:00 16.1 4 Norte 10 Norte 0 -- -- 42
2021-02-16 23:00:00 16.1 4 Norte 11 Noroeste 0 -- -- 47
2021-02-16 22:00:00 18.1 2 Nordeste 10 Noroeste 0 -- -- 43
2021-02-16 21:00:00 18.8 5 Sudoeste 12 Sudoeste 0 -- -- 40
2021-02-16 20:00:00 19 7 Sur 17 Sudeste 0 -- -- 45
2021-02-16 19:00:00 19.3 9 Sur 32 Sudeste 0 -- -- 41
2021-02-16 18:00:00 19.5 11 Sur 35 Sudeste 0 -- -- 52
2021-02-16 17:00:00 20.2 11 Sudeste 23 Sudeste 0 -- -- 52
2021-02-16 16:00:00 21.3 8 Sudeste 22 Sudeste 0 -- -- 49
2021-02-16 15:00:00 22.2 9 Sudeste 23 Sudeste 0 -- -- 45
2021-02-16 14:00:00 22.7 7 Sur 27 Sudeste 0 -- -- 49
2021-02-16 13:00:00 22.2 15 Sudeste 30 Sudeste 0 -- -- 44
2021-02-16 12:00:00 22.6 8 Sudeste 19 Sur 0 -- -- 44
2021-02-16 11:00:00 21.5 9 Sudeste 26 Sur 0 -- -- 49
2021-02-16 10:00:00 20.9 9 Sur 26 Sudeste 0 -- -- 49
2021-02-16 09:00:00 20.1 10 Sur 27 Sudeste 0 -- -- 56
2021-02-16 08:00:00 19.7 7 Sur 30 Sur 0 -- -- 59
2021-02-16 07:00:00 20.3 8 Sur 21 Sur 0 -- -- 50
2021-02-16 06:00:00 20.7 3 Norte 16 Oeste 0 -- -- 39
2021-02-16 05:00:00 20.5 4 Norte 13 Noroeste 0 -- -- 44
2021-02-16 04:00:00 21.6 3 Noroeste 23 Sudoeste 0 -- -- 35
2021-02-16 03:00:00 21.8 4 Noroeste 32 Sudoeste 0 -- -- 40
2021-02-16 02:00:00 21.1 4 Norte 12 Oeste 0 -- -- 34
2021-02-16 01:00:00 20.6 3 Oeste 22 Nordeste 0 -- -- 32
2021-02-16 00:00:00 18.1 6 Norte 10 Norte 0 -- -- 46
2021-02-15 23:00:00 18.3 2 Norte 10 Norte 0 -- -- 48
2021-02-15 22:00:00 18.3 4 Norte 9 Norte 0 -- -- 43
2021-02-15 21:00:00 18.1 5 Norte 10 Norte 0 -- -- 47
2021-02-15 20:00:00 18.3 5 Norte 9 Norte 0 -- -- 53
2021-02-15 19:00:00 19.8 3 Norte 6 Sudoeste 0 -- -- 60
2021-02-15 18:00:00 21.3 3 Oeste 9 Sudoeste 0 -- -- 57
2021-02-15 17:00:00 22.5 5 Sur 13 Sur 0 -- -- 54
2021-02-15 16:00:00 23.2 6 Sur 12 Sur 0 -- -- 62
2021-02-15 15:00:00 23.1 7 Sur 13 Sur 0 -- -- 64
2021-02-15 14:00:00 23.5 5 Sudeste 15 Sur 0 -- -- 57
2021-02-15 13:00:00 23.5 3 Sur 12 Sudoeste 0 -- -- 52
2021-02-15 12:00:00 22.2 6 Sur 12 Sudeste 0 -- -- 64
2021-02-15 11:00:00 21.2 5 Sudeste 12 Sur 0 -- -- 72
2021-02-15 10:00:00 19.5 0 Calma 7 Norte 0 -- -- 75
2021-02-15 09:00:00 15.2 5 Norte 9 Norte 0 -- -- 79
2021-02-15 08:00:00 13.3 6 Norte 10 Norte 0 -- -- 83
2021-02-15 07:00:00 13.6 3 Norte 9 Norte 0 -- -- 80
2021-02-15 06:00:00 13.4 6 Norte 10 Norte 0 -- -- 79
2021-02-15 05:00:00 13.4 5 Norte 9 Norte 0 -- -- 79
2021-02-15 04:00:00 13 6 Norte 12 Norte 0 -- -- 78
2021-02-15 03:00:00 13.8 3 Norte 13 Norte 0 -- -- 80
2021-02-15 02:00:00 13.5 4 Norte 11 Norte 0 -- -- 81
2021-02-15 01:00:00 13.5 5 Norte 8 Norte 0 -- -- 80
2021-02-15 00:00:00 14.1 5 Norte 8 Norte 0 -- -- 81
2021-02-14 23:00:00 14.4 5 Norte 9 Norte 0 -- -- 80
2021-02-14 22:00:00 14.8 4 Norte 8 Norte 0 -- -- 79
2021-02-14 21:00:00 15.3 6 Norte 9 Norte 0 -- -- 81
2021-02-14 20:00:00 16.4 4 Norte 6 Norte 0 -- -- 79
2021-02-14 19:00:00 18.1 2 Sudoeste 10 Sudeste 0 -- -- 75
2021-02-14 18:00:00 18.9 4 Sudeste 16 Sur 0 -- -- 73
2021-02-14 17:00:00 19.7 8 Sudeste 19 Sudeste 0 -- -- 68
2021-02-14 16:00:00 20.7 9 Sur 22 Sudeste 0 -- -- 67
2021-02-14 15:00:00 20.7 8 Sudeste 24 Sudeste 0 -- -- 67
2021-02-14 14:00:00 20.5 9 Sudeste 26 Sudeste 0 -- -- 67
2021-02-14 13:00:00 20.2 10 Sudeste 26 Sudeste 0 -- -- 68
2021-02-14 12:00:00 20.4 10 Sudeste 25 Sur 0 -- -- 66
2021-02-14 11:00:00 20.7 9 Sudeste 20 Sudeste 0 -- -- 62
2021-02-14 10:00:00 20 4 Sudeste 16 Nordeste 0 -- -- 61
2021-02-14 09:00:00 18 4 Norte 19 Norte 0 -- -- 69
2021-02-14 08:00:00 16.7 6 Norte 19 Norte 0 -- -- 74
2021-02-14 07:00:00 16.1 5 Norte 14 Norte 0 -- -- 75
2021-02-14 06:00:00 16.4 3 Norte 19 Nordeste 0 -- -- 72
2021-02-14 05:00:00 16.9 9 Norte 23 Nordeste 0 -- -- 74
2021-02-14 04:00:00 15.9 7 Norte 18 Nordeste 0 -- -- 79
2021-02-14 03:00:00 14.9 0 Calma 4 Noroeste 0 -- -- 81
2021-02-14 02:00:00 16 0 Calma 14 Nordeste 0 -- -- 74
2021-02-14 01:00:00 17.1 5 Norte 17 Norte 0 -- -- 71
2021-02-14 00:00:00 17 2 Norte 17 Norte 0 -- -- 72
2021-02-13 23:00:00 17.3 8 Norte 18 Norte 0 -- -- 70
2021-02-13 22:00:00 17.4 8 Norte 22 Norte 0 -- -- 70
2021-02-13 21:00:00 17.6 6 Norte 23 Norte 0 -- -- 69
2021-02-13 20:00:00 17.9 12 Norte 27 Nordeste 0 -- -- 67
2021-02-13 19:00:00 18.3 11 Norte 23 Norte 0 -- -- 65
2021-02-13 18:00:00 18.8 11 Norte 28 Norte 0 -- -- 65
2021-02-13 17:00:00 20.1 13 Norte 28 Norte 0 -- -- 61
2021-02-13 16:00:00 22 10 Norte 26 Norte 0 -- -- 57
2021-02-13 15:00:00 22.2 11 Norte 24 Norte 0 -- -- 56
2021-02-13 14:00:00 22.3 9 Norte 23 Noroeste 0 -- -- 58
2021-02-13 13:00:00 22.1 8 Norte 23 Norte 0 -- -- 57
2021-02-13 12:00:00 21.6 6 Norte 17 Norte 0 -- -- 59
2021-02-13 07:00:00 -- -- -- -- -- -- -- -- --
2021-02-13 06:00:00 17.7 0 Calma 11 Norte 0 -- -- 73
2021-02-13 05:00:00 17.7 3 Nordeste 9 Nordeste 0 -- -- 72
2021-02-13 04:00:00 17.8 0 Calma 13 Noroeste 0 -- -- 71
2021-02-13 03:00:00 18.1 3 Norte 14 Norte 0 -- -- 70
2021-02-13 02:00:00 18.5 3 Norte 14 Noroeste 0 -- -- 69
2021-02-13 01:00:00 18.9 5 Norte 21 Noroeste 0 -- -- 72
2021-02-13 00:00:00 18.9 5 Norte 25 Noroeste 0 -- -- 72
2021-02-12 23:00:00 19.1 7 Norte 27 Norte 0 -- -- 71
2021-02-12 22:00:00 19.2 8 Norte 17 Norte 0 -- -- 69
2021-02-12 21:00:00 19 5 Norte 13 Norte 0 -- -- 72
2021-02-12 20:00:00 19.1 7 Norte 23 Norte 0 -- -- 74
2021-02-12 19:00:00 19.4 3 Norte 20 Norte 0 -- -- 70
2021-02-12 18:00:00 20 6 Norte 26 Norte 0 -- -- 64
2021-02-12 17:00:00 20.9 6 Norte 17 Norte 0 -- -- 61
2021-02-12 16:00:00 21.2 6 Nordeste 17 Noroeste 0 -- -- 58
2021-02-12 15:00:00 21.3 10 Norte 23 Norte 0 -- -- 60
2021-02-12 14:00:00 21.4 8 Norte 27 Norte 0 -- -- 53
2021-02-12 13:00:00 21.6 9 Norte 24 Norte 0 -- -- 60
2021-02-12 12:00:00 21.2 7 Noroeste 21 Norte 0 -- -- 60
2021-02-12 11:00:00 20.7 5 Norte 19 Norte 0 -- -- 63
2021-02-12 10:00:00 20.3 6 Norte 17 Norte 0 -- -- 66
2021-02-12 09:00:00 18.3 4 Norte 13 Norte 0 -- -- 77
2021-02-12 08:00:00 17.1 0 Calma 10 Noroeste 0 -- -- 76
2021-02-12 07:00:00 16.7 0 Calma 10 Noroeste 0 -- -- 78
2021-02-12 06:00:00 17.1 0 Calma 4 Norte 0 -- -- 76
2021-02-12 05:00:00 18 3 Norte 12 Norte 0 -- -- 74
2021-02-12 04:00:00 18 5 Norte 13 Norte 0 -- -- 73
2021-02-12 03:00:00 17.9 2 Nordeste 10 Norte 0 -- -- 77
2021-02-12 02:00:00 18.3 0 Calma 12 Norte 0 -- -- 75
2021-02-12 01:00:00 18.7 4 Norte 22 Norte 0 -- -- 73
2021-02-12 00:00:00 18.9 4 Norte 19 Norte 0 -- -- 70
2021-02-11 23:00:00 19.1 5 Norte 14 Norte 0 -- -- 70
2021-02-11 22:00:00 19 4 Norte 15 Norte 0 -- -- 70
2021-02-11 21:00:00 19.3 5 Norte 18 Norte 0 -- -- 69
2021-02-11 20:00:00 19.2 5 Norte 17 Norte 0 -- -- 69
2021-02-11 19:00:00 19.2 6 Norte 16 Norte 0 -- -- 67
2021-02-11 18:00:00 19.6 7 Norte 14 Norte 0 -- -- 64
2021-02-11 17:00:00 20.3 5 Noroeste 19 Norte 0 -- -- 59
2021-02-11 16:00:00 21.4 10 Norte 23 Norte 0 -- -- 58
2021-02-11 15:00:00 22.1 9 Norte 27 Norte 0 -- -- 55
2021-02-11 14:00:00 22.1 13 Norte 27 Norte 0 -- -- 51
2021-02-11 13:00:00 21.9 11 Norte 23 Nordeste 0 -- -- 55
2021-02-11 12:00:00 21.4 9 Norte 19 Nordeste 0 -- -- 59
2021-02-11 11:00:00 20.8 6 Nordeste 16 Sudeste 0 -- -- 59
2021-02-11 10:00:00 19.3 0 Calma 7 Norte 0 -- -- 70
2021-02-11 09:00:00 16.9 2 Norte 8 Norte 0 -- -- 83
2021-02-11 08:00:00 14.8 4 Norte 8 Noroeste 0 -- -- 86
2021-02-11 07:00:00 13.7 4 Norte 9 Noroeste 0 -- -- 87
2021-02-11 06:00:00 13.9 4 Norte 8 Norte 0 -- -- 86
2021-02-11 05:00:00 14.1 4 Norte 8 Norte 0 -- -- 85
2021-02-11 04:00:00 14.9 4 Norte 8 Norte 0 -- -- 83
2021-02-11 03:00:00 15.5 4 Norte 8 Norte 0 -- -- 81
2021-02-11 02:00:00 15.9 2 Norte 7 Norte 0 -- -- 80
2021-02-11 01:00:00 16.2 4 Norte 7 Norte 0 -- -- 78
2021-02-11 00:00:00 15.6 4 Norte 9 Norte 0 -- -- 79
2021-02-10 23:00:00 15.2 5 Norte 8 Norte 0 -- -- 79
2021-02-10 22:00:00 15.6 5 Norte 8 Norte 0 -- -- 78
2021-02-10 21:00:00 16.1 5 Norte 7 Norte 0 -- -- 76
2021-02-10 20:00:00 17 4 Norte 10 Nordeste 0 -- -- 74
2021-02-10 19:00:00 19.2 2 Sur 7 Sur 0 -- -- 70
2021-02-10 18:00:00 19.7 3 Sur 8 Sur 0 -- -- 68
2021-02-10 17:00:00 19.9 6 Sur 9 Sudoeste 0 -- -- 66
2021-02-10 16:00:00 20.5 5 Sur 12 Sur 0 -- -- 64
2021-02-10 15:00:00 21.3 6 Sur 14 Sur 0 -- -- 61
2021-02-10 14:00:00 21.4 6 Sur 12 Sur 0 -- -- 60
2021-02-10 13:00:00 21.4 7 Sur 15 Sudeste 0 -- -- 63
2021-02-10 12:00:00 20.7 6 Sur 12 Sur 0 -- -- 66
2021-02-10 11:00:00 20.5 5 Sur 9 Sur 0 -- -- 65
2021-02-10 10:00:00 19.6 5 Sur 9 Sudeste 0 -- -- 69
2021-02-10 09:00:00 15.7 5 Norte 10 Norte 0 -- -- 80
2021-02-10 08:00:00 13.6 5 Norte 9 Norte 0 -- -- 85
2021-02-10 07:00:00 13.6 5 Norte 9 Norte 0 -- -- 85
2021-02-10 06:00:00 13.7 4 Norte 9 Norte 0 -- -- 85
2021-02-10 05:00:00 13.8 5 Norte 9 Norte 0 -- -- 85
2021-02-10 04:00:00 13.9 5 Norte 9 Norte 0 -- -- 85
2021-02-10 03:00:00 14.4 4 Norte 8 Norte 0 -- -- 84
2021-02-10 02:00:00 14.5 6 Norte 9 Norte 0 -- -- 85
2021-02-10 01:00:00 14.7 5 Norte 8 Norte 0 -- -- 85
2021-02-10 00:00:00 15.2 4 Norte 6 Norte 0 -- -- 84
2021-02-09 23:00:00 15.5 3 Norte 8 Noroeste 0 -- -- 84
2021-02-09 22:00:00 15.5 3 Norte 7 Norte 0 -- -- 83
2021-02-09 21:00:00 16 4 Norte 7 Norte 0 -- -- 81
2021-02-09 20:00:00 17.1 3 Norte 6 Norte 0 -- -- 77
2021-02-09 19:00:00 18.8 0 Calma 6 Sur 0 -- -- 68
2021-02-09 18:00:00 19.4 3 Sudeste 9 Sudeste 0 -- -- 64
2021-02-09 17:00:00 20 5 Sur 13 Sudeste 0 -- -- 61
2021-02-09 16:00:00 20.4 6 Sudeste 17 Sur 0 -- -- 60
2021-02-09 15:00:00 21.1 9 Sudeste 20 Sur 0 -- -- 57
2021-02-09 14:00:00 21.3 11 Sudeste 19 Sudeste 0 -- -- 55
2021-02-09 13:00:00 21.5 10 Sur 23 Sudeste 0 -- -- 55
2021-02-09 12:00:00 20.8 9 Sudeste 22 Sur 0 -- -- 55
2021-02-09 11:00:00 20.9 7 Sur 13 Sudeste 0 -- -- 54
2021-02-09 10:00:00 19.6 4 Sur 12 Nordeste 0 -- -- 57
2021-02-09 09:00:00 16.3 3 Este 9 Este 0 -- -- 74
2021-02-09 08:00:00 13.4 4 Norte 8 Norte 0 -- -- 85
2021-02-09 07:00:00 13.2 3 Norte 8 Norte 0 -- -- 85
2021-02-09 06:00:00 13.6 4 Norte 11 Norte 0 -- -- 84
2021-02-09 05:00:00 13.3 5 Norte 8 Norte 0 -- -- 85
2021-02-09 04:00:00 13.4 5 Norte 12 Norte 0 -- -- 84
2021-02-09 03:00:00 13.7 4 Norte 9 Norte 0 -- -- 83
2021-02-09 02:00:00 14.4 5 Norte 8 Norte 0 -- -- 81
2021-02-09 01:00:00 15.8 2 Norte 10 Nordeste 0 -- -- 74
2021-02-09 00:00:00 16.9 2 Noroeste 17 Nordeste 0 -- -- 70
2021-02-08 23:00:00 17.1 6 Noroeste 14 Noroeste 0 -- -- 67
2021-02-08 22:00:00 16.5 2 Noroeste 9 Norte 0 -- -- 75
2021-02-08 21:00:00 16.4 2 Norte 6 Noroeste 0 -- -- 77
2021-02-08 20:00:00 17.6 3 Noroeste 8 Norte 0 -- -- 70
2021-02-08 19:00:00 18.3 3 Noroeste 8 Nordeste 0 -- -- 71
2021-02-08 18:00:00 18.8 3 Norte 13 Nordeste 0 -- -- 70
2021-02-08 17:00:00 19 5 Noroeste 14 Oeste 0 -- -- 70
2021-02-08 16:00:00 19.6 5 Norte 15 Nordeste 0 -- -- 68
2021-02-08 15:00:00 20.2 8 Nordeste 25 Norte 0 -- -- 64
2021-02-08 14:00:00 20.5 4 Sur 17 Sudeste 0 -- -- 62
2021-02-08 13:00:00 21 5 Sudoeste 16 Sudeste 0 -- -- 60
2021-02-08 12:00:00 20.6 8 Sur 20 Sur 0 -- -- 61
2021-02-08 11:00:00 19.8 6 Sudeste 15 Sudeste 0 -- -- 64
2021-02-08 10:00:00 18.2 5 Nordeste 13 Norte 0 -- -- 73
2021-02-08 09:00:00 16 0 Calma 8 Norte 0 -- -- 82
2021-02-08 08:00:00 14.2 0 Calma 8 Este 0 -- -- 84
2021-02-08 07:00:00 15.2 0 Calma 13 Norte 0 -- -- 80
2021-02-08 06:00:00 14.7 3 Norte 10 Noroeste 0 -- -- 80
2021-02-08 05:00:00 14.8 0 Calma 10 Noroeste 0 -- -- 78
2021-02-08 04:00:00 13.8 0 Calma 7 Norte 0 -- -- 82
2021-02-08 03:00:00 15 4 Noroeste 12 Noroeste 0 -- -- 77
2021-02-08 02:00:00 14 2 Noroeste 6 Norte 0 -- -- 83
2021-02-08 01:00:00 14.6 3 Norte 7 Nordeste 0 -- -- 81
2021-02-08 00:00:00 16 2 Oeste 12 Norte 0 -- -- 74
2021-02-07 23:00:00 16.6 0 Calma 17 Norte 0 -- -- 71
2021-02-07 22:00:00 15.9 3 Norte 9 Norte 0 -- -- 75
2021-02-07 21:00:00 16.3 2 Norte 6 Norte 0 -- -- 74
2021-02-07 20:00:00 16.9 2 Norte 13 Noroeste 0 -- -- 71
2021-02-07 19:00:00 17.2 2 Norte 15 Nordeste 0 -- -- 70
2021-02-07 18:00:00 17.7 4 Norte 19 Noroeste 0 -- -- 68
2021-02-07 17:00:00 18.2 9 Norte 20 Nordeste 0 -- -- 69
2021-02-07 16:00:00 19.6 8 Norte 21 Norte 0 -- -- 65
2021-02-07 15:00:00 19.6 10 Nordeste 23 Norte 0 -- -- 64
2021-02-07 14:00:00 19.3 13 Norte 24 Norte 0 -- -- 66
2021-02-07 13:00:00 19.1 9 Norte 22 Norte 0 -- -- 65
2021-02-07 12:00:00 19.4 6 Noroeste 18 Nordeste 0 -- -- 63
2021-02-07 11:00:00 17.5 2 Nordeste 8 Norte 0 -- -- 71
2021-02-07 10:00:00 16.6 0 Calma 5 Norte 0 -- -- 72
2021-02-07 09:00:00 15.6 2 Norte 8 Noroeste 0 -- -- 78
2021-02-07 08:00:00 14.9 3 Noroeste 9 Oeste 0 -- -- 77
2021-02-07 07:00:00 15.4 3 Noroeste 10 Norte 0 -- -- 78
2021-02-07 06:00:00 16.2 2 Oeste 13 Noroeste 0 -- -- 69
2021-02-07 05:00:00 16.3 4 Oeste 14 Oeste 0 -- -- 66
2021-02-07 04:00:00 15.2 0 Calma 23 Nordeste 0 -- -- 70
2021-02-07 03:00:00 16.4 5 Noroeste 18 Noroeste 0 -- -- 65
2021-02-07 02:00:00 16.6 6 Norte 20 Nordeste 0 -- -- 66
2021-02-07 01:00:00 16.4 6 Sudoeste 23 Nordeste 0 -- -- 65
2021-02-07 00:00:00 15.7 9 Norte 29 Norte 0 -- -- 74
2021-02-06 23:00:00 16.7 8 Norte 30 Norte 0 -- -- 63
2021-02-06 22:00:00 16.5 5 Norte 25 Noroeste 0 -- -- 58
2021-02-06 21:00:00 16.8 9 Norte 20 Norte 0 -- -- 61
2021-02-06 20:00:00 16.7 6 Norte 23 Norte 0 -- -- 66
2021-02-06 19:00:00 15.8 5 Noroeste 32 Norte 0 -- -- 73
2021-02-06 18:00:00 17.5 9 Norte 32 Norte 0 -- -- 61
2021-02-06 17:00:00 17.9 6 Noroeste 33 Norte 0 -- -- 63
2021-02-06 16:00:00 18.2 13 Norte 41 Noroeste 0 -- -- 61
2021-02-06 15:00:00 19.2 13 Norte 36 Nordeste 0 -- -- 56
2021-02-06 14:00:00 19.1 14 Norte 37 Norte 0 -- -- 57
2021-02-06 13:00:00 17.9 10 Norte 41 Norte 0.2 -- -- 70
2021-02-06 12:00:00 18.3 14 Norte 36 Norte 0 -- -- 60
2021-02-06 11:00:00 17.8 10 Norte 40 Norte 0 -- -- 62
2021-02-06 10:00:00 16.5 12 Norte 44 Norte 0 -- -- 63
2021-02-06 09:00:00 15.9 13 Norte 36 Norte 0 -- -- 63
2021-02-06 08:00:00 14.9 12 Norte 39 Nordeste 1.8 -- -- 71
2021-02-06 07:00:00 15.9 11 Norte 37 Noroeste 0 -- -- 64
2021-02-06 06:00:00 15.7 9 Noroeste 39 Nordeste 0 -- -- 64
2021-02-06 05:00:00 15.1 14 Norte 42 Noroeste 0 -- -- 64
2021-02-06 04:00:00 14.9 8 Norte 28 Norte 0 -- -- 63
2021-02-06 03:00:00 15.1 8 Norte 35 Norte 0 -- -- 64
2021-02-06 02:00:00 14.8 11 Norte 41 Norte 0 -- -- 68
2021-02-06 01:00:00 14.2 15 Norte 37 Norte 1 -- -- 73
2021-02-06 00:00:00 14.8 13 Norte 45 Norte 0.2 -- -- 68
2021-02-05 23:00:00 14.1 9 Norte 35 Norte 0.6 -- -- 73
2021-02-05 22:00:00 13.8 8 Norte 26 Nordeste 0 -- -- 74
2021-02-05 21:00:00 13.5 10 Norte 41 Norte 2.4 -- -- 76
2021-02-05 20:00:00 13.7 5 Norte 22 Norte 0.2 -- -- 74
2021-02-05 19:00:00 12.8 5 Norte 27 Norte 1.8 -- -- 80
2021-02-05 18:00:00 12.8 16 Norte 47 Noroeste 8.6 -- -- 80
2021-02-05 17:00:00 13.7 15 Norte 32 Norte 2 -- -- 73
2021-02-05 16:00:00 12.7 11 Norte 26 Norte 7.6 -- -- 80
2021-02-05 15:00:00 15 10 Norte 30 Noroeste 4.4 -- -- 71
2021-02-05 14:00:00 15.4 11 Norte 29 Nordeste 0.6 -- -- 70
2021-02-05 13:00:00 12.5 7 Norte 28 Nordeste 3.2 -- -- 81
2021-02-05 12:00:00 13.1 13 Norte 38 Noroeste 1.4 -- -- 79
2021-02-05 11:00:00 14.5 3 Oeste 24 Norte 1.2 -- -- 75
2021-02-05 10:00:00 13.3 12 Norte 27 Noroeste 1.8 -- -- 76
2021-02-05 09:00:00 12.8 6 Noroeste 25 Norte 2.2 -- -- 78
2021-02-05 08:00:00 12.3 7 Norte 26 Noroeste 1.6 -- -- 78
2021-02-05 07:00:00 11.5 12 Norte 26 Noroeste 9.4 -- -- 80
2021-02-05 06:00:00 12.3 10 Norte 26 Oeste 2.4 -- -- 78
2021-02-05 05:00:00 12.1 4 Norte 18 Norte 3 -- -- 80
2021-02-05 04:00:00 12.1 3 Norte 9 Noroeste 0 -- -- 80
2021-02-05 03:00:00 12.7 3 Oeste 10 Sudoeste 0 -- -- 75
2021-02-05 02:00:00 11.7 3 Oeste 19 Norte 0 -- -- 80
2021-02-05 01:00:00 11.7 9 Norte 30 Norte 3.2 -- -- 77
2021-02-05 00:00:00 12.8 16 Norte 31 Norte 2 -- -- 76
2021-02-04 23:00:00 13.1 3 Norte 30 Nordeste 0 -- -- 74
2021-02-04 22:00:00 14.7 4 Noroeste 25 Nordeste 0.2 -- -- 67
2021-02-04 21:00:00 15.3 6 Noroeste 32 Norte 2.2 -- -- 68
2021-02-04 20:00:00 15.7 8 Norte 33 Nordeste 0.2 -- -- 69
2021-02-04 19:00:00 15.5 7 Norte 19 Norte 0 -- -- 68
2021-02-04 18:00:00 15.3 7 Norte 28 Nordeste 2.4 -- -- 73
2021-02-04 17:00:00 17.6 9 Norte 38 Nordeste 0 -- -- 59
2021-02-04 16:00:00 19.1 15 Norte 50 Noroeste 0 -- -- 52
2021-02-04 15:00:00 18.7 15 Norte 40 Norte 0 -- -- 50
2021-02-04 14:00:00 18.3 14 Norte 37 Norte 0 -- -- 58
2021-02-04 13:00:00 17.7 15 Norte 48 Norte 0 -- -- 63
2021-02-04 12:00:00 18.4 13 Norte 31 Nordeste 0 -- -- 65
2021-02-04 11:00:00 18.4 15 Norte 43 Norte 0 -- -- 59
2021-02-04 10:00:00 17.3 14 Norte 35 Norte 0 -- -- 66
2021-02-04 09:00:00 16.4 7 Norte 29 Nordeste 0 -- -- 72
2021-02-04 08:00:00 15.2 9 Norte 19 Norte 0 -- -- 77
2021-02-04 07:00:00 15.5 3 Sudeste 20 Norte 0 -- -- 76
2021-02-04 06:00:00 15.7 3 Nordeste 15 Nordeste 0 -- -- 83
2021-02-04 05:00:00 15.8 2 Sudoeste 10 Norte 0 -- -- 84
2021-02-04 04:00:00 16.2 5 Norte 11 Nordeste 0 -- -- 84
2021-02-04 03:00:00 16.4 3 Norte 6 Norte 0 -- -- 82
2021-02-04 02:00:00 15.7 0 Calma 8 Norte 0 -- -- 78
2021-02-04 01:00:00 15.6 4 Norte 7 Norte 0 -- -- 79
2021-02-04 00:00:00 16.7 2 Oeste 6 Oeste 0 -- -- 74
2021-02-03 23:00:00 16.4 0 Calma 5 Norte 0 -- -- 75
2021-02-03 22:00:00 17 0 Calma 12 Nordeste 0 -- -- 71
2021-02-03 21:00:00 17.7 5 Norte 14 Norte 0 -- -- 69
2021-02-03 20:00:00 17.9 6 Norte 15 Norte 0 -- -- 68
2021-02-03 19:00:00 18.6 8 Norte 22 Nordeste 0 -- -- 67
2021-02-03 18:00:00 19.1 6 Norte 19 Norte 0 -- -- 65
2021-02-03 17:00:00 19.9 9 Nordeste 21 Nordeste 0 -- -- 62
2021-02-03 16:00:00 21 7 Norte 22 Norte 0 -- -- 58
2021-02-03 15:00:00 20.4 8 Norte 19 Norte 0 -- -- 61
2021-02-03 14:00:00 21.6 6 Norte 17 Sudoeste 0 -- -- 59
2021-02-03 13:00:00 21.6 7 Sur 22 Sur 0 -- -- 59
2021-02-03 12:00:00 21 5 Sudoeste 17 Sudeste 0 -- -- 61
2021-02-03 11:00:00 20.2 7 Sur 13 Sur 0 -- -- 64
2021-02-03 10:00:00 18.5 0 Calma 5 Norte 0 -- -- 71
2021-02-03 09:00:00 14.4 4 Norte 9 Nordeste 0 -- -- 88
2021-02-03 08:00:00 13.4 4 Norte 8 Noroeste 0 -- -- 87
2021-02-03 07:00:00 13 4 Norte 8 Norte 0 -- -- 89
2021-02-03 06:00:00 13.2 3 Norte 8 Noroeste 0 -- -- 89
2021-02-03 05:00:00 13.5 4 Norte 9 Norte 0 -- -- 88
2021-02-03 04:00:00 13.7 5 Norte 8 Norte 0 -- -- 87
2021-02-03 03:00:00 14.5 0 Calma 8 Norte 0 -- -- 85
2021-02-03 02:00:00 14.8 4 Norte 6 Norte 0 -- -- 85
2021-02-03 01:00:00 16.3 2 Norte 7 Norte 0 -- -- 80
2021-02-03 00:00:00 16.1 4 Norte 7 Norte 0 -- -- 83
2021-02-02 23:00:00 15.5 4 Norte 8 Norte 0 -- -- 86
2021-02-02 22:00:00 16 4 Norte 7 Norte 0 -- -- 85
2021-02-02 21:00:00 17.4 3 Sur 6 Norte 0 -- -- 80
2021-02-02 20:00:00 17.6 0 Calma 5 Sur 0 -- -- 81
2021-02-02 19:00:00 18.3 3 Sur 12 Sudeste 0 -- -- 79
2021-02-02 18:00:00 18.6 5 Sur 15 Sudeste 0 -- -- 78
2021-02-02 17:00:00 19.2 5 Sudeste 19 Sudeste 0 -- -- 74
2021-02-02 16:00:00 20.1 10 Sudeste 21 Sudeste 0 -- -- 71
2021-02-02 15:00:00 21.1 7 Sur 16 Sudeste 0 -- -- 67
2021-02-02 14:00:00 20.9 6 Sudeste 16 Sur 0 -- -- 67
2021-02-02 13:00:00 20.8 7 Sudeste 19 Sudeste 0 -- -- 67
2021-02-02 12:00:00 20.5 6 Sur 23 Sur 0 -- -- 70
2021-02-02 11:00:00 19.2 6 Sudeste 17 Sudeste 0 -- -- 73
2021-02-02 10:00:00 19.2 7 Sur 13 Sudeste 0 -- -- 75
2021-02-02 09:00:00 15.6 3 Norte 9 Norte 0 -- -- 86
2021-02-02 08:00:00 14.5 4 Norte 10 Norte 0 -- -- 87
2021-02-02 07:00:00 14.7 3 Norte 11 Norte 0 -- -- 85
2021-02-02 06:00:00 15.1 3 Norte 8 Norte 0 -- -- 84
2021-02-02 05:00:00 15.4 4 Norte 8 Norte 0 -- -- 84
2021-02-02 04:00:00 15.6 3 Noroeste 7 Nordeste 0 -- -- 84
2021-02-02 03:00:00 16.3 2 Norte 4 Norte 0 -- -- 82
2021-02-02 02:00:00 17.5 0 Calma 11 Nordeste 0 -- -- 77
2021-02-02 01:00:00 18.1 3 Nordeste 15 Norte 0 -- -- 76
2021-02-02 00:00:00 18.3 8 Norte 19 Norte 0 -- -- 75
2021-02-01 23:00:00 18.2 2 Norte 14 Norte 0 -- -- 71
2021-02-01 22:00:00 18.8 5 Norte 19 Norte 0 -- -- 68
2021-02-01 21:00:00 19.4 9 Norte 22 Nordeste 0 -- -- 68
2021-02-01 20:00:00 19.9 5 Nordeste 15 Norte 0 -- -- 63
2021-02-01 19:00:00 20.4 3 Norte 13 Sur 0 -- -- 53
2021-02-01 18:00:00 21.9 6 Sur 18 Sur 0 -- -- 51
2021-02-01 17:00:00 22.3 10 Sur 22 Sudeste 0 -- -- 54
2021-02-01 16:00:00 23.4 8 Sur 22 Sur 0 -- -- 55
2021-02-01 15:00:00 22.8 11 Sur 23 Sudeste 0 -- -- 62
2021-02-01 14:00:00 22.5 12 Sur 23 Sur 0 -- -- 63
2021-02-01 13:00:00 22.2 10 Sur 26 Sur 0 -- -- 63
2021-02-01 12:00:00 22.3 9 Sur 21 Sudeste 0 -- -- 65
2021-02-01 11:00:00 21.5 6 Sudeste 20 Sudeste 0 -- -- 67
2021-02-01 10:00:00 21 8 Sur 18 Sur 0 -- -- 67
2021-02-01 09:00:00 18.2 3 Noroeste 9 Norte 0 -- -- 74
2021-02-01 08:00:00 17.8 5 Norte 17 Nordeste 0 -- -- 72
2021-02-01 07:00:00 17.4 6 Norte 16 Norte 0 -- -- 69
2021-02-01 06:00:00 17.7 5 Norte 17 Norte 0 -- -- 64
2021-02-01 05:00:00 16.3 3 Sudeste 13 Norte 0 -- -- 72
2021-02-01 04:00:00 15.7 4 Norte 10 Norte 0 -- -- 71
2021-02-01 03:00:00 16.2 4 Norte 11 Norte 0 -- -- 69
2021-02-01 02:00:00 17.7 2 Noroeste 21 Nordeste 0 -- -- 66
2021-02-01 01:00:00 18.9 6 Norte 16 Norte 0 -- -- 65
2021-02-01 00:00:00 19.1 4 Norte 17 Norte 0 -- -- 62
2021-01-31 23:00:00 19 6 Norte 27 Norte 0 -- -- 67
2021-01-31 22:00:00 19.2 13 Norte 35 Norte 0 -- -- 68
2021-01-31 21:00:00 19.3 12 Norte 24 Noroeste 0 -- -- 66
2021-01-31 20:00:00 19.8 11 Norte 33 Norte 0 -- -- 62
2021-01-31 19:00:00 20.3 8 Norte 27 Norte 0 -- -- 56
2021-01-31 18:00:00 20.7 9 Norte 31 Norte 0 -- -- 51
2021-01-31 17:00:00 20.6 17 Norte 32 Norte 0 -- -- 61
2021-01-31 16:00:00 22.2 14 Norte 27 Noroeste 0 -- -- 56
2021-01-31 15:00:00 23 12 Nordeste 28 Norte 0 -- -- 53
2021-01-31 14:00:00 22.2 13 Norte 28 Nordeste 0 -- -- 55
2021-01-31 13:00:00 21.9 12 Norte 25 Norte 0 -- -- 59
2021-01-31 12:00:00 21.7 9 Norte 32 Norte 0 -- -- 61
2021-01-31 11:00:00 21.1 9 Norte 24 Nordeste 0 -- -- 65
2021-01-31 10:00:00 20.3 11 Norte 26 Norte 0 -- -- 67
2021-01-31 09:00:00 18.9 11 Norte 21 Norte 0 -- -- 74
2021-01-31 08:00:00 17.7 6 Norte 15 Nordeste 0 -- -- 84
2021-01-31 07:00:00 17.8 5 Norte 12 Norte 0 -- -- 85
2021-01-31 06:00:00 17.8 2 Norte 13 Norte 0 -- -- 86
2021-01-31 05:00:00 18 3 Norte 18 Norte 0 -- -- 84
2021-01-31 04:00:00 18 0 Calma 10 Norte 0 -- -- 85
2021-01-31 03:00:00 18.1 5 Norte 18 Norte 0 -- -- 82
2021-01-31 02:00:00 18.3 6 Norte 16 Norte 0 -- -- 81
2021-01-31 01:00:00 18.2 6 Norte 24 Noroeste 0 -- -- 79
2021-01-31 00:00:00 17.9 6 Norte 19 Noroeste 0 -- -- 75
2021-01-30 23:00:00 17.9 5 Norte 22 Noroeste 0 -- -- 74
2021-01-30 22:00:00 17.8 10 Norte 36 Norte 0 -- -- 74
2021-01-30 21:00:00 18 12 Norte 30 Norte 0 -- -- 71
2021-01-30 20:00:00 18.4 10 Norte 24 Norte 0 -- -- 64
2021-01-30 19:00:00 18.1 9 Norte 34 Norte 0 -- -- 69
2021-01-30 18:00:00 18.6 9 Norte 35 Norte 0 -- -- 71
2021-01-30 17:00:00 19.6 15 Norte 34 Norte 0 -- -- 67
2021-01-30 16:00:00 22.9 10 Norte 24 Norte 0 -- -- 52
2021-01-30 15:00:00 23.5 9 Norte 23 Norte 0 -- -- 50
2021-01-30 14:00:00 23.6 12 Norte 28 Norte 0 -- -- 52
2021-01-30 13:00:00 23.3 8 Norte 21 Sur 0 -- -- 53
2021-01-30 12:00:00 22.6 9 Nordeste 24 Nordeste 0 -- -- 54
2021-01-30 11:00:00 21.8 11 Norte 24 Nordeste 0 -- -- 59
2021-01-30 10:00:00 20.6 8 Nordeste 31 Norte 0 -- -- 62
2021-01-30 09:00:00 18.8 13 Norte 38 Norte 0 -- -- 70
2021-01-30 08:00:00 17.9 10 Norte 24 Nordeste 0 -- -- 73
2021-01-30 07:00:00 16.4 10 Norte 24 Nordeste 0 -- -- 84
2021-01-30 06:00:00 14.6 4 Norte 9 Norte 0 -- -- 80
2021-01-30 05:00:00 14.9 5 Norte 12 Norte 0 -- -- 79
2021-01-30 04:00:00 16.4 7 Norte 21 Norte 0 -- -- 78
2021-01-30 03:00:00 18.5 9 Norte 32 Norte 0 -- -- 73
2021-01-30 02:00:00 18.7 11 Norte 36 Nordeste 0 -- -- 77
2021-01-30 01:00:00 19.2 19 Norte 42 Norte 0 -- -- 75
2021-01-30 00:00:00 19.2 15 Norte 32 Nordeste 0 -- -- 75